createdAt,value
2019-04-21T00:01:30.686Z,52.89
2019-04-21T00:04:12.453Z,53.19
2019-04-21T00:07:01.243Z,53.75
2019-04-21T00:09:37.758Z,54.60
2019-04-21T00:12:05.980Z,55.46
2019-04-21T00:14:29.183Z,56.00
2019-04-21T00:16:57.461Z,56.44
2019-04-21T00:19:28.438Z,56.59
2019-04-21T00:22:11.416Z,56.07
2019-04-21T00:24:44.464Z,56.24
2019-04-21T00:27:26.596Z,55.89
2019-04-21T00:30:00.227Z,56.76
2019-04-21T00:32:25.354Z,57.24
2019-04-21T00:34:51.172Z,57.25
2019-04-21T00:37:31.827Z,56.87
2019-04-21T00:40:28.035Z,56.90
2019-04-21T00:42:43.174Z,56.22
2019-04-21T00:45:16.230Z,56.60
2019-04-21T00:47:51.022Z,56.45
2019-04-21T00:50:33.765Z,56.56
2019-04-21T00:53:29.631Z,57.02
2019-04-21T00:56:04.130Z,56.89
2019-04-21T00:58:33.275Z,56.91
2019-04-21T01:01:01.617Z,57.18
2019-04-21T01:03:43.270Z,56.89
2019-04-21T01:06:19.131Z,57.48
2019-04-21T01:08:40.990Z,56.73
2019-04-21T01:11:17.891Z,57.40
2019-04-21T01:13:58.029Z,57.28
2019-04-21T01:16:28.823Z,57.50
2019-04-21T01:18:54.855Z,57.17
2019-04-21T01:21:14.222Z,58.04
2019-04-21T01:23:44.576Z,58.19
2019-04-21T01:26:31.107Z,57.86
2019-04-21T01:29:08.633Z,57.61
2019-04-21T01:31:42.239Z,57.77
2019-04-21T01:34:14.980Z,56.90
2019-04-21T01:36:47.489Z,56.84
2019-04-21T01:39:29.695Z,57.29
2019-04-21T01:41:57.425Z,56.84
2019-04-21T01:44:36.210Z,57.17
2019-04-21T01:46:59.802Z,57.01
2019-04-21T01:49:33.374Z,57.61
2019-04-21T01:52:24.763Z,58.00
2019-04-21T01:54:55.919Z,57.89
2019-04-21T01:57:33.413Z,58.64
2019-04-21T01:59:58.574Z,58.52
2019-04-21T02:02:41.421Z,57.99
2019-04-21T02:05:18.824Z,58.02
2019-04-21T02:07:44.317Z,58.58
2019-04-21T02:10:20.863Z,58.93
2019-04-21T02:12:51.086Z,59.15
2019-04-21T02:15:29.748Z,58.99
2019-04-21T02:17:59.520Z,60.13
2019-04-21T02:20:26.880Z,59.71
2019-04-21T02:23:22.336Z,59.43
2019-04-21T02:25:38.389Z,59.45
2019-04-21T02:28:21.161Z,60.03
2019-04-21T02:36:20.705Z,60.11
2019-04-21T02:38:48.216Z,60.15
2019-04-21T02:41:07.620Z,59.84
2019-04-21T02:43:44.873Z,60.35
2019-04-21T02:46:27.742Z,59.96
2019-04-21T02:49:01.003Z,59.97
2019-04-21T02:51:28.164Z,60.46
2019-04-21T02:54:32.350Z,60.49
2019-04-21T02:56:34.466Z,59.90
2019-04-21T02:59:17.097Z,59.65
2019-04-21T03:07:24.347Z,59.90
2019-04-21T03:17:48.758Z,60.69
2019-04-21T03:22:38.194Z,61.33
2019-04-21T03:25:25.249Z,61.54
2019-04-21T03:27:56.917Z,61.99
2019-04-21T03:30:26.261Z,62.45
2019-04-21T03:38:05.367Z,62.43
2019-04-21T03:40:26.191Z,62.57
2019-04-21T03:43:10.207Z,62.99
2019-04-21T03:48:21.264Z,63.90
2019-04-21T03:50:49.431Z,64.10
2019-04-21T03:53:20.298Z,63.37
2019-04-21T03:55:53.093Z,63.54
2019-04-21T03:58:35.952Z,60.92
2019-04-21T04:01:16.218Z,61.39
2019-04-21T04:04:08.409Z,61.57
2019-04-21T04:06:49.709Z,62.25
2019-04-21T04:09:21.254Z,62.78
2019-04-21T04:19:34.723Z,63.25
2019-04-21T04:22:19.389Z,63.11
2019-04-21T04:24:39.544Z,62.12
2019-04-21T04:27:14.809Z,62.21
2019-04-21T04:29:48.353Z,60.77
2019-04-21T04:34:59.555Z,60.23
2019-04-21T04:42:51.476Z,59.12
2019-04-21T04:45:26.778Z,58.43
2019-04-21T04:47:49.838Z,59.37
2019-04-21T04:50:37.356Z,59.12
2019-04-21T04:53:07.714Z,58.95
2019-04-21T04:55:33.583Z,58.48
2019-04-21T05:00:52.099Z,58.73
2019-04-21T05:03:19.138Z,57.21
2019-04-21T05:11:39.918Z,56.93
2019-04-21T05:21:40.481Z,53.99
2019-04-21T05:24:00.022Z,53.44
2019-04-21T05:26:41.937Z,52.56
2019-04-21T05:29:05.209Z,51.50
2019-04-21T05:34:41.220Z,50.29
2019-04-21T05:37:14.348Z,49.79
2019-04-21T05:39:45.149Z,49.00
2019-04-21T05:42:18.737Z,48.56
2019-04-21T05:45:01.660Z,47.32
2019-04-21T05:47:40.126Z,47.07
2019-04-21T05:50:00.827Z,46.89
2019-04-21T05:52:37.539Z,46.52
2019-04-21T05:55:19.978Z,45.53
2019-04-21T05:57:47.883Z,45.40
2019-04-21T06:00:23.634Z,45.44
2019-04-21T06:02:57.896Z,45.83
2019-04-21T06:05:37.358Z,45.26
2019-04-21T06:08:10.366Z,44.76
2019-04-21T06:10:41.910Z,43.97
2019-04-21T06:13:19.921Z,42.36
2019-04-21T06:15:51.277Z,42.99
2019-04-21T06:18:31.382Z,40.35
2019-04-21T06:23:30.295Z,40.22
2019-04-21T06:28:42.637Z,38.63
2019-04-21T06:31:14.619Z,38.19
2019-04-21T06:33:44.925Z,38.73
2019-04-21T06:36:31.756Z,35.54
2019-04-21T06:39:01.749Z,36.66
2019-04-21T06:49:02.738Z,40.48
2019-04-21T06:51:48.185Z,41.08
2019-04-21T06:54:10.007Z,42.16
2019-04-21T06:56:47.847Z,40.76
2019-04-21T06:59:14.887Z,41.67
2019-04-21T07:01:56.702Z,40.95
2019-04-21T07:04:31.779Z,40.44
2019-04-21T07:09:31.883Z,39.41
2019-04-21T07:12:02.295Z,40.40
2019-04-21T07:14:37.997Z,39.64
2019-04-21T07:17:12.608Z,38.72
2019-04-21T07:19:49.840Z,38.67
2019-04-21T07:22:19.050Z,38.98
2019-04-21T07:24:53.607Z,38.19
2019-04-21T07:27:22.200Z,38.18
2019-04-21T07:29:58.549Z,35.59
2019-04-21T07:32:34.884Z,35.50
2019-04-21T07:35:09.414Z,36.17
2019-04-21T07:37:46.183Z,34.37
2019-04-21T07:40:05.472Z,35.84
2019-04-21T07:42:46.965Z,31.15
2019-04-21T07:45:17.974Z,30.47
2019-04-21T07:48:12.449Z,30.33
2019-04-21T07:50:57.818Z,30.49
2019-04-21T07:53:38.202Z,29.53
2019-04-21T07:55:50.995Z,29.39
2019-04-21T07:58:47.639Z,27.70
2019-04-21T08:01:23.006Z,28.34
2019-04-21T08:03:45.482Z,28.41
2019-04-21T08:06:31.909Z,28.75
2019-04-21T08:08:55.998Z,27.89
2019-04-21T08:11:25.349Z,27.56
2019-04-21T08:14:00.588Z,26.89
2019-04-21T08:16:42.135Z,26.84
2019-04-21T08:19:13.315Z,26.03
2019-04-21T08:21:55.806Z,26.48
2019-04-21T08:24:19.713Z,26.15
2019-04-21T08:26:55.693Z,25.64
2019-04-21T08:32:08.044Z,26.03
2019-04-21T08:34:33.885Z,25.32
2019-04-21T08:37:13.933Z,25.16
2019-04-21T08:42:21.590Z,25.59
2019-04-21T08:44:54.389Z,25.46
2019-04-21T08:47:28.482Z,25.26
2019-04-21T08:50:02.136Z,25.70
2019-04-21T08:52:44.463Z,25.49
2019-04-21T08:58:56.138Z,25.83
2019-04-21T09:01:43.035Z,25.69
2019-04-21T09:04:21.689Z,25.53
2019-04-21T09:06:58.818Z,25.52
2019-04-21T09:09:28.900Z,26.06
2019-04-21T09:12:01.309Z,26.03
2019-04-21T09:14:36.518Z,26.24
2019-04-21T09:17:03.251Z,25.80
2019-04-21T09:19:51.744Z,26.58
2019-04-21T09:22:12.817Z,26.08
2019-04-21T09:24:50.290Z,26.20
2019-04-21T09:27:20.366Z,25.31
2019-04-21T09:29:49.229Z,25.18
2019-04-21T09:32:20.260Z,25.81
2019-04-21T09:34:49.588Z,25.65
2019-04-21T09:37:36.696Z,25.72
2019-04-21T09:39:58.887Z,25.75
2019-04-21T09:42:35.963Z,25.55
2019-04-21T09:45:07.671Z,25.62
2019-04-21T09:47:45.045Z,25.27
2019-04-21T09:50:12.047Z,25.52
2019-04-21T09:52:52.846Z,26.19
2019-04-21T09:55:22.778Z,25.94
2019-04-21T09:57:57.009Z,26.39
2019-04-21T10:00:29.309Z,27.05
2019-04-21T10:03:06.028Z,26.39
2019-04-21T10:05:33.792Z,26.01
2019-04-21T10:08:05.903Z,25.74
2019-04-21T10:10:38.355Z,25.58
2019-04-21T10:13:11.079Z,25.46
2019-04-21T10:15:46.269Z,26.84
2019-04-21T10:18:25.074Z,27.22
2019-04-21T10:20:57.020Z,27.64
2019-04-21T10:23:29.721Z,26.13
2019-04-21T10:26:01.357Z,25.54
2019-04-21T10:28:33.010Z,25.57
2019-04-21T10:31:06.854Z,25.84
2019-04-21T10:33:42.069Z,24.92
2019-04-21T10:36:15.102Z,24.71
2019-04-21T10:38:51.539Z,24.22
2019-04-21T10:41:21.385Z,24.19
2019-04-21T10:43:55.404Z,24.34
2019-04-21T10:46:27.009Z,25.79
2019-04-21T10:48:58.924Z,25.65
2019-04-21T10:51:32.913Z,24.95
2019-04-21T10:54:06.163Z,24.80
2019-04-21T10:56:43.259Z,25.77
2019-04-21T10:59:12.098Z,25.16
2019-04-21T11:01:45.180Z,25.25
2019-04-21T11:04:25.325Z,24.47
2019-04-21T11:06:58.285Z,23.94
2019-04-21T11:09:29.872Z,24.18
2019-04-21T11:12:02.031Z,24.41
2019-04-21T11:14:35.641Z,24.79
2019-04-21T11:17:07.957Z,24.43
2019-04-21T11:19:39.339Z,24.52
2019-04-21T11:22:10.826Z,25.00
2019-04-21T11:24:42.994Z,24.33
2019-04-21T11:27:14.978Z,24.30
2019-04-21T11:29:47.455Z,24.18
2019-04-21T11:32:19.123Z,24.35
2019-04-21T11:34:51.662Z,25.16
2019-04-21T11:37:26.119Z,25.33
2019-04-21T11:40:03.895Z,24.85
2019-04-21T11:42:37.837Z,24.53
2019-04-21T11:45:10.548Z,24.75
2019-04-21T11:47:43.839Z,25.29
2019-04-21T11:50:15.427Z,25.28
2019-04-21T11:52:47.287Z,25.26
2019-04-21T11:55:18.978Z,25.55
2019-04-21T11:57:52.814Z,25.59
2019-04-21T12:00:24.007Z,25.61
2019-04-21T12:02:55.636Z,24.70
2019-04-21T12:05:27.649Z,24.36
2019-04-21T12:08:00.174Z,25.89
2019-04-21T12:10:31.658Z,26.06
2019-04-21T12:13:06.170Z,25.65
2019-04-21T12:15:36.839Z,24.60
2019-04-21T12:18:08.263Z,24.25
2019-04-21T12:20:39.858Z,25.40
2019-04-21T12:23:12.518Z,24.70
2019-04-21T12:25:47.262Z,25.14
2019-04-21T12:28:19.719Z,24.44
2019-04-21T12:30:53.788Z,24.71
2019-04-21T12:33:28.068Z,24.55
2019-04-21T12:36:00.012Z,24.07
2019-04-21T12:38:42.624Z,24.36
2019-04-21T12:41:06.653Z,24.74
2019-04-21T12:43:38.963Z,24.26
2019-04-21T12:46:11.858Z,24.47
2019-04-21T12:48:44.332Z,24.28
2019-04-21T12:51:17.638Z,24.55
2019-04-21T12:53:49.849Z,24.46
2019-04-21T12:56:21.483Z,24.55
2019-04-21T12:58:53.339Z,23.38
2019-04-21T13:01:25.108Z,22.99
2019-04-21T13:04:03.918Z,22.48
2019-04-21T13:06:35.537Z,22.53
2019-04-21T13:09:11.258Z,22.16
2019-04-21T13:11:41.430Z,23.20
2019-04-21T13:14:13.719Z,22.98
2019-04-21T13:16:45.684Z,23.32
2019-04-21T13:19:17.502Z,22.75
2019-04-21T13:21:49.904Z,22.60
2019-04-21T13:24:21.984Z,22.14
2019-04-21T13:26:58.464Z,21.87
2019-04-21T13:29:28.163Z,21.84
2019-04-21T13:32:01.220Z,21.87
2019-04-21T13:34:33.797Z,22.70
2019-04-21T13:37:05.787Z,23.23
2019-04-21T13:40:14.401Z,24.32
2019-04-21T13:42:34.213Z,24.18
2019-04-21T13:45:02.217Z,23.82
2019-04-21T13:47:34.708Z,23.76
2019-04-21T13:50:08.807Z,24.07
2019-04-21T13:52:40.910Z,24.15
2019-04-21T13:55:14.000Z,24.03
2019-04-21T13:57:46.445Z,24.30
2019-04-21T14:00:19.419Z,24.08
2019-04-21T14:02:52.502Z,24.48
2019-04-21T14:05:24.528Z,24.17
2019-04-21T14:07:56.499Z,24.32
2019-04-21T14:10:29.439Z,24.92
2019-04-21T14:13:02.494Z,25.12
2019-04-21T14:15:35.804Z,25.67
2019-04-21T14:18:08.788Z,25.18
2019-04-21T14:20:40.413Z,24.94
2019-04-21T14:23:21.079Z,24.88
2019-04-21T14:25:45.794Z,25.12
2019-04-21T14:28:18.370Z,24.13
2019-04-21T14:30:50.458Z,24.31
2019-04-21T14:33:23.443Z,24.18
2019-04-21T14:35:56.859Z,24.20
2019-04-21T14:38:29.417Z,24.23
2019-04-21T14:41:02.057Z,24.62
2019-04-21T14:43:34.189Z,24.95
2019-04-21T14:46:11.046Z,25.12
2019-04-21T14:49:03.589Z,25.54
2019-04-21T14:51:40.999Z,26.03
2019-04-21T14:54:33.150Z,26.40
2019-04-21T14:57:05.258Z,26.60
2019-04-21T14:59:37.204Z,25.96
2019-04-21T15:02:09.845Z,26.34
2019-04-21T15:04:43.921Z,26.57
2019-04-21T15:07:15.610Z,26.41
2019-04-21T15:09:59.660Z,25.95
2019-04-21T15:12:20.702Z,25.85
2019-04-21T15:14:52.199Z,25.73
2019-04-21T15:17:24.930Z,25.83
2019-04-21T15:20:04.068Z,25.67
2019-04-21T15:22:30.428Z,26.54
2019-04-21T15:25:02.819Z,25.54
2019-04-21T15:27:34.877Z,25.44
2019-04-21T15:30:09.191Z,25.73
2019-04-21T15:32:41.992Z,27.20
2019-04-21T15:35:15.220Z,26.73
2019-04-21T15:37:46.779Z,27.18
2019-04-21T15:40:31.491Z,27.28
2019-04-21T15:42:52.513Z,27.29
2019-04-21T15:45:24.357Z,27.27
2019-04-21T15:47:56.374Z,26.63
2019-04-21T15:50:28.102Z,26.75
2019-04-21T15:53:01.499Z,26.63
2019-04-21T15:55:52.937Z,26.74
2019-04-21T15:58:36.769Z,26.98
2019-04-21T16:01:26.201Z,26.83
2019-04-21T16:04:00.420Z,26.66
2019-04-21T16:06:31.912Z,26.40
2019-04-21T16:09:06.415Z,26.27
2019-04-21T16:11:39.779Z,26.38
2019-04-21T16:14:11.477Z,26.41
2019-04-21T16:16:45.345Z,26.29
2019-04-21T16:19:18.674Z,26.42
2019-04-21T16:21:50.620Z,27.13
2019-04-21T16:24:23.318Z,27.36
2019-04-21T16:26:56.466Z,27.56
2019-04-21T16:29:29.245Z,27.86
2019-04-21T16:32:01.682Z,28.13
2019-04-21T16:34:42.708Z,28.48
2019-04-21T16:37:08.231Z,28.76
2019-04-21T16:39:41.236Z,28.89
2019-04-21T16:42:14.129Z,29.08
2019-04-21T16:44:47.087Z,29.40
2019-04-21T16:47:19.375Z,29.58
2019-04-21T16:49:51.925Z,30.04
2019-04-21T16:52:26.071Z,30.17
2019-04-21T16:55:08.693Z,30.44
2019-04-21T16:57:42.003Z,30.68
2019-04-21T17:00:26.903Z,31.07
2019-04-21T17:02:48.669Z,31.71
2019-04-21T17:05:20.448Z,31.75
2019-04-21T17:07:52.874Z,31.21
2019-04-21T17:10:24.631Z,31.02
2019-04-21T17:12:56.127Z,31.13
2019-04-21T17:15:42.080Z,30.94
2019-04-21T17:18:20.593Z,31.04
2019-04-21T17:20:42.028Z,31.21
2019-04-21T17:23:07.290Z,31.32
2019-04-21T17:25:39.285Z,31.50
2019-04-21T17:28:12.089Z,31.46
2019-04-21T17:30:44.367Z,31.61
2019-04-21T17:33:21.653Z,31.78
2019-04-21T17:35:51.032Z,31.87
2019-04-21T17:38:23.894Z,31.85
2019-04-21T17:41:09.308Z,31.82
2019-04-21T17:43:29.947Z,31.95
2019-04-21T17:46:02.839Z,32.41
2019-04-21T17:48:34.740Z,32.77
2019-04-21T17:51:11.850Z,32.65
2019-04-21T17:53:48.198Z,33.09
2019-04-21T17:56:42.860Z,33.31
2019-04-21T17:59:15.262Z,32.95
2019-04-21T18:01:48.445Z,32.66
2019-04-21T18:04:18.172Z,32.60
2019-04-21T18:07:08.621Z,33.00
2019-04-21T18:09:58.040Z,32.97
2019-04-21T18:12:18.020Z,33.15
2019-04-21T18:14:51.295Z,33.21
2019-04-21T18:17:11.025Z,33.43
2019-04-21T18:19:45.775Z,33.42
2019-04-21T18:22:34.503Z,33.93
2019-04-21T18:25:15.046Z,34.00
2019-04-21T18:27:42.878Z,33.84
2019-04-21T18:30:44.560Z,33.94
2019-04-21T18:33:24.605Z,33.80
2019-04-21T18:36:00.628Z,33.91
2019-04-21T18:39:10.218Z,33.51
2019-04-21T18:41:30.016Z,34.30
2019-04-21T18:44:33.266Z,34.36
2019-04-21T18:47:13.880Z,33.94
2019-04-21T18:49:27.062Z,34.88
2019-04-21T18:52:08.125Z,34.54
2019-04-21T18:54:51.524Z,35.32
2019-04-21T18:57:21.918Z,35.53
2019-04-21T18:59:46.781Z,35.69
2019-04-21T19:02:20.506Z,36.14
2019-04-21T19:04:54.462Z,35.91
2019-04-21T19:07:48.349Z,36.35
2019-04-21T19:10:22.725Z,36.59
2019-04-21T19:15:20.087Z,37.09
2019-04-21T19:18:27.804Z,36.81
2019-04-21T19:20:39.429Z,37.64
2019-04-21T19:23:04.539Z,37.77
2019-04-21T19:25:41.207Z,37.60
2019-04-21T19:28:15.321Z,37.71
2019-04-21T19:30:57.493Z,38.28
2019-04-21T19:33:20.136Z,38.05
2019-04-21T19:35:37.232Z,38.97
2019-04-21T19:38:13.716Z,38.97
2019-04-21T19:40:56.606Z,38.97
2019-04-21T19:43:36.484Z,39.62
2019-04-21T19:46:12.862Z,40.45
2019-04-21T19:48:54.065Z,39.92
2019-04-21T19:51:15.154Z,39.82
2019-04-21T19:53:44.922Z,40.20
2019-04-21T19:56:07.828Z,40.38
2019-04-21T19:58:43.503Z,40.49
2019-04-21T20:01:13.749Z,41.03
2019-04-21T20:03:49.831Z,40.92
2019-04-21T20:06:34.179Z,41.74
2019-04-21T20:09:12.203Z,41.50
2019-04-21T20:11:41.960Z,41.42
2019-04-21T20:16:49.304Z,41.76
2019-04-21T20:19:11.815Z,42.25
2019-04-21T20:21:40.937Z,42.35
2019-04-21T20:24:18.531Z,42.69
2019-04-21T20:26:57.390Z,42.94
2019-04-21T20:29:46.612Z,42.58
2019-04-21T20:32:24.680Z,42.64
2019-04-21T20:34:56.370Z,43.01
2019-04-21T20:37:21.226Z,42.43
2019-04-21T20:39:59.815Z,42.95
2019-04-21T20:42:42.775Z,42.05
2019-04-21T20:47:40.973Z,43.51
2019-04-21T20:50:26.754Z,43.34
2019-04-21T20:53:08.519Z,43.29
2019-04-21T20:55:39.519Z,42.91
2019-04-21T20:58:15.512Z,40.58
2019-04-21T21:03:37.785Z,41.57
2019-04-21T21:06:08.130Z,40.55
2019-04-21T21:08:45.079Z,39.89
2019-04-21T21:11:21.625Z,39.75
2019-04-21T21:13:54.837Z,39.19
2019-04-21T21:16:38.514Z,39.27
2019-04-21T21:21:34.126Z,39.01
2019-04-21T21:24:08.713Z,39.16
2019-04-21T21:26:52.122Z,39.34
2019-04-21T21:29:25.239Z,39.56
2019-04-21T21:31:55.897Z,40.53
2019-04-21T21:34:35.510Z,40.63
2019-04-21T21:37:14.109Z,40.65
2019-04-21T21:39:51.017Z,40.70
2019-04-21T21:41:58.621Z,40.75
2019-04-21T21:44:28.734Z,41.10
2019-04-21T21:47:17.534Z,41.49
2019-04-21T21:49:48.142Z,41.73
2019-04-21T21:52:13.016Z,41.70
2019-04-21T21:54:40.139Z,42.64
2019-04-21T21:57:12.402Z,42.30
2019-04-21T21:59:45.402Z,42.16
2019-04-21T22:02:31.332Z,42.61
2019-04-21T22:04:58.294Z,42.17
2019-04-21T22:07:28.043Z,43.26
2019-04-21T22:09:58.052Z,42.27
2019-04-21T22:12:40.409Z,43.19
2019-04-21T22:15:13.976Z,42.79
2019-04-21T22:17:54.059Z,43.87
2019-04-21T22:20:35.665Z,44.22
2019-04-21T22:22:54.256Z,44.48
2019-04-21T22:25:25.497Z,43.61
2019-04-21T22:27:51.547Z,43.42
2019-04-21T22:30:32.760Z,44.65
2019-04-21T22:33:02.449Z,44.34
2019-04-21T22:35:36.684Z,43.87
2019-04-21T22:38:20.403Z,43.83
2019-04-21T22:40:50.716Z,43.75
2019-04-21T22:43:21.714Z,43.96
2019-04-21T22:45:43.242Z,45.68
2019-04-21T22:48:19.191Z,45.30
2019-04-21T22:50:48.581Z,45.31
2019-04-21T22:53:21.357Z,44.77
2019-04-21T22:56:00.084Z,45.36
2019-04-21T22:58:33.159Z,45.07
2019-04-21T23:01:03.807Z,44.71
2019-04-21T23:03:35.597Z,45.28
2019-04-21T23:06:19.579Z,45.06
2019-04-21T23:08:46.168Z,46.16
2019-04-21T23:11:19.745Z,45.29
2019-04-21T23:13:57.901Z,46.11
2019-04-21T23:16:33.288Z,45.43
2019-04-21T23:19:15.884Z,46.30
2019-04-21T23:21:55.449Z,47.11
2019-04-21T23:24:31.627Z,46.95
2019-04-21T23:26:53.797Z,47.31
2019-04-21T23:29:45.160Z,45.98
2019-04-21T23:32:03.510Z,46.67
2019-04-21T23:34:28.933Z,47.25
2019-04-21T23:37:03.231Z,46.40
2019-04-21T23:39:34.008Z,47.06
2019-04-21T23:42:05.936Z,47.01
2019-04-21T23:44:42.847Z,46.66
2019-04-21T23:47:13.431Z,47.68
2019-04-21T23:49:53.360Z,47.55
2019-04-21T23:52:19.775Z,47.82
2019-04-21T23:54:51.682Z,47.22
2019-04-21T23:57:31.752Z,47.26
2019-04-21T23:59:59.141Z,47.60
